Station Historical Data
Daily Summary for July 28, 2017 Units:  English    Metric   Both
« Previous Day
Next Day »
Daily Weekly Monthly Yearly Custom
  High: Low: Average:
Temperature: 81.0 °F 71.3 °F 76.1 °F
Dew Point: 76.1 °F 69.2 °F 72.6 °F
Humidity: 95% 80% 89%
Wind Speed: 6.1mph 0.0mph 4.7mph
Wind Gust: 6.1mph - -
Wind- - SE
Pressure: 29.95 in 29.79 in -
Precipitation: 0.02 in    
Historical Graphs
 
 
Tabular Data for July 28, 2017
Time Temperature Dew Point Pressure Wind Wind Speed Wind Gust Humidity Rainfall Rate (Hourly) solar Conditions
00:04 73.2 °F 71.4 °F 29.95 in WSW 6.1 mph   94% 0.00 in WeatherDisplay:10.37 W/m2 BKN
00:09 73.1 °F 71.3 °F 29.95 in WSW 6.1 mph   94% 0.00 in WeatherDisplay:10.37 W/m2 BKN
00:15 73.1 °F 71.3 °F 29.95 in Calm     94% 0.00 in WeatherDisplay:10.37 W/m2 BKN
00:20 73.0 °F 71.2 °F 29.95 in Calm     94% 0.00 in WeatherDisplay:10.37 W/m2 CLR
00:25 72.9 °F 71.1 °F 29.94 in Calm     94% 0.00 in WeatherDisplay:10.37 W/m2 CLR
00:30 72.8 °F 71.0 °F 29.94 in Calm     94% 0.00 in WeatherDisplay:10.37 W/m2 CLR
00:35 72.8 °F 71.0 °F 29.94 in Calm     94% 0.01 in WeatherDisplay:10.37 W/m2 RA
00:40 72.8 °F 70.9 °F 29.94 in Calm     94% 0.00 in WeatherDisplay:10.37 W/m2 CLR
00:45 72.7 °F 70.9 °F 29.94 in Calm     94% 0.00 in WeatherDisplay:10.37 W/m2 CLR
00:48 72.7 °F 70.9 °F 29.94 in WSW 6.1 mph   94% 0.01 in WeatherDisplay:10.37 W/m2 CLR
00:53 72.6 °F 70.8 °F 29.94 in WSW 6.1 mph   94% 0.01 in WeatherDisplay:10.37 W/m2 CLR
00:58 72.5 °F 70.7 °F 29.94 in WSW 6.1 mph   94% 0.01 in WeatherDisplay:10.37 W/m2 CLR
01:03 72.4 °F 70.6 °F 29.94 in WSW 6.1 mph   94% 0.01 in WeatherDisplay:10.37 W/m2 CLR
01:08 71.3 °F 69.2 °F 29.94 in WSW 6.1 mph   93% 0.01 in WeatherDisplay:10.37 W/m2 CLR
01:13 73.2 °F 71.1 °F 29.94 in WSW 6.1 mph   93% 0.01 in WeatherDisplay:10.37 W/m2 CLR
01:17 73.2 °F 71.1 °F 29.94 in WSW 6.1 mph   93% 0.01 in WeatherDisplay:10.37 W/m2 CLR
01:22 73.2 °F 71.1 °F 29.95 in North 6.1 mph   93% 0.01 in WeatherDisplay:10.37 W/m2 CLR
01:27 73.2 °F 71.1 °F 29.94 in North 6.1 mph   93% 0.01 in WeatherDisplay:10.37 W/m2 CLR
01:32 73.2 °F 71.1 °F 29.94 in North 6.1 mph   93% 0.01 in WeatherDisplay:10.37 W/m2 CLR
01:37 73.2 °F 71.1 °F 29.94 in North 6.1 mph   93% 0.00 in WeatherDisplay:10.37 W/m2 CLR
01:42 73.2 °F 71.1 °F 29.94 in North 6.1 mph   93% 0.00 in WeatherDisplay:10.37 W/m2 CLR
01:43 73.2 °F 71.1 °F 29.94 in North 6.1 mph   93% 0.00 in WeatherDisplay:10.37 W/m2 CLR
01:48 73.2 °F 71.1 °F 29.94 in North 6.1 mph   93% 0.00 in WeatherDisplay:10.37 W/m2 CLR
01:53 73.2 °F 71.1 °F 29.93 in North 6.1 mph   93% 0.00 in WeatherDisplay:10.37 W/m2 CLR
01:58 73.2 °F 71.1 °F 29.93 in North 6.1 mph   93% 0.00 in WeatherDisplay:10.37 W/m2 CLR
02:03 73.2 °F 71.1 °F 29.93 in North 6.1 mph   93% 0.00 in WeatherDisplay:10.37 W/m2 CLR
02:09 73.2 °F 71.1 °F 29.93 in North 6.1 mph   93% 0.00 in WeatherDisplay:10.37 W/m2 CLR
02:14 73.2 °F 71.1 °F 29.93 in North 6.1 mph   93% 0.00 in WeatherDisplay:10.37 W/m2 CLR
02:19 73.2 °F 71.1 °F 29.93 in North 6.1 mph   93% 0.00 in WeatherDisplay:10.37 W/m2 CLR
02:24 73.2 °F 71.1 °F 29.93 in North 6.1 mph   93% 0.00 in WeatherDisplay:10.37 W/m2 CLR
02:27 73.2 °F 71.1 °F 29.93 in North 6.1 mph   93% 0.00 in WeatherDisplay:10.37 W/m2 CLR
02:32 73.2 °F 71.1 °F 29.93 in North 6.1 mph   93% 0.00 in WeatherDisplay:10.37 W/m2 CLR
02:37 73.2 °F 71.1 °F 29.93 in North 6.1 mph   93% 0.00 in WeatherDisplay:10.37 W/m2 CLR
02:42 73.2 °F 71.1 °F 29.93 in North 6.1 mph   93% 0.00 in WeatherDisplay:10.37 W/m2 CLR
02:47 73.2 °F 71.1 °F 29.92 in North 6.1 mph   93% 0.00 in WeatherDisplay:10.37 W/m2 CLR
02:52 73.2 °F 71.1 °F 29.92 in North 6.1 mph   93% 0.00 in WeatherDisplay:10.37 W/m2 CLR
02:57 73.2 °F 71.1 °F 29.92 in North 6.1 mph   93% 0.00 in WeatherDisplay:10.37 W/m2 CLR
03:03 73.2 °F 71.1 °F 29.92 in North 6.1 mph   93% 0.00 in WeatherDisplay:10.37 W/m2 CLR
03:08 73.2 °F 71.1 °F 29.92 in North 6.1 mph   93% 0.00 in WeatherDisplay:10.37 W/m2 CLR
03:13 73.2 °F 71.1 °F 29.92 in North 6.1 mph   93% 0.00 in WeatherDisplay:10.37 W/m2 CLR
03:18 73.2 °F 71.1 °F 29.92 in North 6.1 mph   93% 0.00 in WeatherDisplay:10.37 W/m2 CLR
03:23 73.2 °F 71.1 °F 29.92 in North 6.1 mph   93% 0.00 in WeatherDisplay:10.37 W/m2 CLR
03:28 73.2 °F 71.1 °F 29.92 in North 6.1 mph   93% 0.00 in WeatherDisplay:10.37 W/m2 CLR
03:33 73.2 °F 71.1 °F 29.92 in North 6.1 mph   93% 0.00 in WeatherDisplay:10.37 W/m2 CLR
03:38 73.2 °F 71.1 °F 29.92 in North 6.1 mph   93% 0.00 in WeatherDisplay:10.37 W/m2 CLR
03:43 73.2 °F 71.1 °F 29.92 in North 6.1 mph   93% 0.00 in WeatherDisplay:10.37 W/m2 CLR
03:48 73.2 °F 71.1 °F 29.92 in North 6.1 mph   93% 0.00 in WeatherDisplay:10.37 W/m2 CLR
03:53 73.2 °F 71.1 °F 29.92 in North 6.1 mph   93% 0.00 in WeatherDisplay:10.37 W/m2 CLR
03:59 73.2 °F 71.1 °F 29.91 in North 6.1 mph   93% 0.00 in WeatherDisplay:10.37 W/m2 CLR
04:04 73.2 °F 71.1 °F 29.91 in North 6.1 mph   93% 0.00 in WeatherDisplay:10.37 W/m2 CLR
04:09 73.2 °F 71.1 °F 29.91 in North 6.1 mph   93% 0.00 in WeatherDisplay:10.37 W/m2 CLR
04:14 73.2 °F 71.1 °F 29.91 in North 6.1 mph   93% 0.00 in WeatherDisplay:10.37 W/m2 CLR
04:19 73.2 °F 71.1 °F 29.91 in North 6.1 mph   93% 0.00 in WeatherDisplay:10.37 W/m2 CLR
04:24 73.2 °F 71.1 °F 29.90 in North 6.1 mph   93% 0.00 in WeatherDisplay:10.37 W/m2 CLR
04:29 73.2 °F 71.1 °F 29.90 in North 6.1 mph   93% 0.00 in WeatherDisplay:10.37 W/m2 CLR
04:34 73.2 °F 71.1 °F 29.90 in North 6.1 mph   93% 0.00 in WeatherDisplay:10.37 W/m2 CLR
04:39 73.2 °F 71.1 °F 29.90 in North 6.1 mph   93% 0.00 in WeatherDisplay:10.37 W/m2 CLR
04:44 73.2 °F 71.1 °F 29.90 in North 6.1 mph   93% 0.00 in WeatherDisplay:10.37 W/m2 CLR
04:49 73.2 °F 71.1 °F 29.90 in North 6.1 mph   93% 0.00 in WeatherDisplay:10.37 W/m2 CLR
04:54 73.2 °F 71.1 °F 29.90 in North 6.1 mph   93% 0.00 in WeatherDisplay:10.37 W/m2 CLR
04:59 73.2 °F 71.1 °F 29.90 in North 6.1 mph   93% 0.00 in WeatherDisplay:10.37 W/m2 CLR
05:04 73.2 °F 71.1 °F 29.90 in North 6.1 mph   93% 0.00 in WeatherDisplay:10.37 W/m2 CLR
05:10 73.2 °F 71.1 °F 29.90 in North 6.1 mph   93% 0.00 in WeatherDisplay:10.37 W/m2 CLR
05:15 73.2 °F 71.1 °F 29.90 in Calm     93% 0.00 in WeatherDisplay:10.37 W/m2 CLR
05:20 73.2 °F 71.1 °F 29.90 in Calm     93% 0.00 in WeatherDisplay:10.37 W/m2 CLR
05:25 73.2 °F 71.1 °F 29.90 in North 6.1 mph   93% 0.00 in WeatherDisplay:10.37 W/m2 CLR
05:30 73.2 °F 71.1 °F 29.90 in Calm     93% 0.00 in WeatherDisplay:10.37 W/m2 CLR
05:35 73.2 °F 71.1 °F 29.90 in Calm     93% 0.00 in WeatherDisplay:10.37 W/m2 CLR
05:40 73.2 °F 71.1 °F 29.90 in North 6.1 mph   93% 0.00 in WeatherDisplay:10.37 W/m2 CLR
05:45 73.2 °F 71.1 °F 29.90 in Calm     93% 0.00 in WeatherDisplay:10.37 W/m2 CLR
05:50 73.2 °F 71.1 °F 29.90 in Calm     93% 0.00 in WeatherDisplay:10.37 W/m2 CLR
05:55 73.2 °F 71.1 °F 29.90 in Calm     93% 0.00 in WeatherDisplay:10.37 W/m2 CLR
06:00 73.2 °F 71.1 °F 29.90 in Calm     93% 0.00 in WeatherDisplay:10.37 W/m2 CLR
06:05 73.2 °F 71.1 °F 29.90 in Calm     93% 0.00 in WeatherDisplay:10.37 W/m2 CLR
06:10 73.2 °F 71.1 °F 29.90 in Calm     93% 0.00 in WeatherDisplay:10.37 W/m2 CLR
06:15 73.2 °F 71.1 °F 29.90 in Calm     93% 0.00 in WeatherDisplay:10.37 W/m2 CLR
06:20 73.2 °F 71.1 °F 29.90 in Calm     93% 0.00 in WeatherDisplay:10.37 W/m2 CLR
06:25 73.2 °F 71.1 °F 29.90 in Calm     93% 0.00 in WeatherDisplay:10.37 W/m2 CLR
06:30 73.2 °F 71.1 °F 29.90 in Calm     93% 0.00 in WeatherDisplay:10.37 W/m2 CLR
06:35 73.2 °F 71.1 °F 29.90 in Calm     93% 0.00 in WeatherDisplay:10.37 W/m2 CLR
06:40 73.2 °F 71.1 °F 29.90 in Calm     93% 0.00 in WeatherDisplay:10.37 W/m2 CLR
06:45 73.2 °F 71.1 °F 29.90 in North 6.1 mph   93% 0.00 in WeatherDisplay:10.37 W/m2 CLR
06:50 73.2 °F 71.1 °F 29.90 in North 6.1 mph   93% 0.00 in WeatherDisplay:10.37 W/m2 CLR
06:55 73.2 °F 71.1 °F 29.90 in North 6.1 mph   93% 0.00 in WeatherDisplay:10.37 W/m2 CLR
07:00 73.2 °F 71.1 °F 29.90 in North 6.1 mph   93% 0.00 in WeatherDisplay:10.37 W/m2 CLR
07:05 73.2 °F 71.1 °F 29.90 in North 6.1 mph   93% 0.00 in WeatherDisplay:10.37 W/m2 CLR
07:10 73.2 °F 71.1 °F 29.90 in North 6.1 mph   93% 0.00 in WeatherDisplay:10.37 W/m2 CLR
07:15 73.2 °F 71.1 °F 29.90 in North 6.1 mph   93% 0.00 in WeatherDisplay:10.37 W/m2 CLR
07:20 73.2 °F 71.1 °F 29.91 in North 6.1 mph   93% 0.00 in WeatherDisplay:10.37 W/m2 BKN
07:25 73.2 °F 71.1 °F 29.91 in North 6.1 mph   93% 0.00 in WeatherDisplay:10.37 W/m2 BKN
07:30 73.2 °F 71.1 °F 29.90 in North 6.1 mph   93% 0.00 in WeatherDisplay:10.37 W/m2 BKN
07:35 73.2 °F 71.1 °F 29.91 in North 6.1 mph   93% 0.00 in WeatherDisplay:10.37 W/m2 BKN
07:40 73.2 °F 71.1 °F 29.91 in North 6.1 mph   93% 0.00 in WeatherDisplay:10.37 W/m2 BKN
07:45 73.2 °F 71.1 °F 29.91 in North 6.1 mph   93% 0.00 in WeatherDisplay:10.37 W/m2 BKN
07:50 73.2 °F 71.1 °F 29.91 in North 6.1 mph   93% 0.00 in WeatherDisplay:10.37 W/m2 BKN
07:56 73.2 °F 71.1 °F 29.91 in North 6.1 mph   93% 0.00 in WeatherDisplay:10.37 W/m2 BKN
08:01 73.2 °F 71.1 °F 29.91 in North 6.1 mph   93% 0.00 in WeatherDisplay:10.37 W/m2 BKN
08:06 73.2 °F 71.1 °F 29.91 in North 6.1 mph   93% 0.00 in WeatherDisplay:10.37 W/m2 BKN
08:11 73.2 °F 71.1 °F 29.91 in North 6.1 mph   93% 0.00 in WeatherDisplay:10.37 W/m2 BKN
08:16 73.2 °F 71.1 °F 29.91 in North 6.1 mph   93% 0.00 in WeatherDisplay:10.37 W/m2 BKN
08:21 73.2 °F 71.1 °F 29.91 in North 6.1 mph   93% 0.00 in WeatherDisplay:10.37 W/m2 BKN
08:26 73.2 °F 71.1 °F 29.91 in North 6.1 mph   93% 0.00 in WeatherDisplay:10.37 W/m2 BKN
08:27 73.2 °F 71.1 °F 29.91 in North 6.1 mph   93% 0.00 in WeatherDisplay:10.37 W/m2 BKN
08:32 73.2 °F 71.1 °F 29.91 in North 6.1 mph   93% 0.00 in WeatherDisplay:10.37 W/m2 BKN
08:37 73.2 °F 71.1 °F 29.91 in North 6.1 mph   93% 0.00 in WeatherDisplay:10.37 W/m2 BKN
08:42 73.2 °F 71.1 °F 29.92 in North 6.1 mph   93% 0.00 in WeatherDisplay:10.37 W/m2 BKN
08:47 73.2 °F 71.1 °F 29.91 in North 6.1 mph   93% 0.00 in WeatherDisplay:10.37 W/m2 BKN
08:52 73.2 °F 71.1 °F 29.92 in North 6.1 mph   93% 0.00 in WeatherDisplay:10.37 W/m2 BKN
08:57 73.2 °F 71.1 °F 29.92 in North 6.1 mph   93% 0.00 in WeatherDisplay:10.37 W/m2 BKN
09:02 75.3 °F 73.8 °F 29.92 in WSW 6.1 mph   95% 0.00 in WeatherDisplay:10.37 W/m2 BKN
09:07 75.5 °F 74.0 °F 29.92 in WSW 6.1 mph   95% 0.00 in WeatherDisplay:10.37 W/m2 BKN
09:12 75.5 °F 74.0 °F 29.92 in WSW 6.1 mph   95% 0.00 in WeatherDisplay:10.37 W/m2 BKN
09:17 75.6 °F 73.8 °F 29.92 in WSW 6.1 mph   94% 0.00 in WeatherDisplay:10.37 W/m2 BKN
09:22 76.2 °F 74.7 °F 29.91 in WSW 6.1 mph   95% 0.00 in WeatherDisplay:10.37 W/m2 BKN
09:27 76.7 °F 75.2 °F 29.91 in WSW 6.1 mph   95% 0.00 in WeatherDisplay:10.37 W/m2 BKN
09:32 77.0 °F 75.5 °F 29.91 in WSW 6.1 mph   95% 0.00 in WeatherDisplay:10.37 W/m2 BKN
09:37 77.1 °F 75.6 °F 29.92 in WSW 6.1 mph   95% 0.00 in WeatherDisplay:10.37 W/m2 BKN
09:42 77.0 °F 75.5 °F 29.92 in WSW 6.1 mph   95% 0.00 in WeatherDisplay:10.37 W/m2 BKN
09:47 77.3 °F 75.4 °F 29.92 in WSW 6.1 mph   94% 0.00 in WeatherDisplay:10.37 W/m2 BKN
09:52 77.5 °F 75.6 °F 29.92 in WSW 6.1 mph   94% 0.00 in WeatherDisplay:10.37 W/m2 BKN
09:58 77.8 °F 75.9 °F 29.92 in WSW 6.1 mph   94% 0.00 in WeatherDisplay:10.37 W/m2 BKN
10:03 77.9 °F 76.0 °F 29.91 in WSW 6.1 mph   94% 0.00 in WeatherDisplay:10.37 W/m2 BKN
10:08 77.7 °F 75.8 °F 29.91 in WNW 6.1 mph 6.1 mph 94% 0.00 in WeatherDisplay:10.37 W/m2 BKN
10:13 77.8 °F 75.9 °F 29.91 in NNW 6.1 mph   94% 0.00 in WeatherDisplay:10.37 W/m2 BKN
10:23 78.3 °F 76.1 °F 29.91 in WNW 6.1 mph 6.1 mph 93% 0.00 in WeatherDisplay:10.37 W/m2 BKN
10:28 78.5 °F 75.7 °F 29.91 in WNW 6.1 mph 6.1 mph 91% 0.00 in WeatherDisplay:10.37 W/m2 BKN
10:33 78.7 °F 75.5 °F 29.91 in WNW 6.1 mph   90% 0.00 in WeatherDisplay:10.37 W/m2 BKN
10:38 78.9 °F 75.4 °F 29.91 in WNW 6.1 mph 6.1 mph 89% 0.00 in WeatherDisplay:10.37 W/m2 BKN
10:43 79.0 °F 75.5 °F 29.91 in WNW 6.1 mph   89% 0.00 in WeatherDisplay:10.37 W/m2 BKN
10:48 79.2 °F 75.7 °F 29.91 in WNW 6.1 mph   89% 0.00 in WeatherDisplay:10.37 W/m2 BKN
10:53 79.2 °F 75.3 °F 29.92 in West 6.1 mph   88% 0.00 in WeatherDisplay:10.37 W/m2 BKN
10:58 79.2 °F 75.0 °F 29.92 in NW 6.1 mph   87% 0.00 in WeatherDisplay:10.37 W/m2 BKN
11:03 79.2 °F 75.0 °F 29.92 in NNE 6.1 mph   87% 0.00 in WeatherDisplay:10.37 W/m2 BKN
11:08 79.2 °F 75.0 °F 29.92 in WNW 6.1 mph 6.1 mph 87% 0.00 in WeatherDisplay:10.37 W/m2 BKN
11:13 79.2 °F 75.0 °F 29.92 in WNW 6.1 mph   87% 0.00 in WeatherDisplay:10.37 W/m2 BKN
11:19 79.1 °F 74.9 °F 29.92 in West 6.1 mph 6.1 mph 87% 0.00 in WeatherDisplay:10.37 W/m2 BKN
11:24 79.0 °F 74.8 °F 29.92 in NNW 6.1 mph   87% 0.00 in WeatherDisplay:10.37 W/m2 BKN
11:29 78.9 °F 74.7 °F 29.92 in NNW 6.1 mph   87% 0.00 in WeatherDisplay:10.37 W/m2 BKN
11:34 78.8 °F 74.6 °F 29.92 in West 6.1 mph 6.1 mph 87% 0.00 in WeatherDisplay:10.37 W/m2 BKN
11:39 78.7 °F 74.5 °F 29.92 in West 6.1 mph   87% 0.00 in WeatherDisplay:10.37 W/m2 BKN
11:49 78.6 °F 74.4 °F 29.92 in West 6.1 mph   87% 0.00 in WeatherDisplay:10.37 W/m2 BKN
11:54 78.7 °F 74.5 °F 29.92 in West 6.1 mph   87% 0.00 in WeatherDisplay:10.37 W/m2 BKN
11:59 78.8 °F 74.6 °F 29.92 in West 6.1 mph 6.1 mph 87% 0.00 in WeatherDisplay:10.37 W/m2 BKN
12:09 78.7 °F 74.2 °F 29.92 in North 6.1 mph   86% 0.01 in WeatherDisplay:10.37 W/m2 RA
12:14 78.6 °F 74.4 °F 29.92 in North 6.1 mph 6.1 mph 87% 0.01 in WeatherDisplay:10.37 W/m2 BKN
12:20 78.6 °F 74.4 °F 29.92 in Calm   1.0 mph 87% 0.00 in WeatherDisplay:10.37 W/m2 OVC
12:25 78.3 °F 73.4 °F 29.92 in Calm   2.0 mph 85% 0.00 in WeatherDisplay:10.37 W/m2 OVC
12:30 78.2 °F 73.3 °F 29.92 in Calm   2.0 mph 85% 0.00 in WeatherDisplay:10.37 W/m2 OVC
12:35 78.1 °F 73.2 °F 29.92 in Calm   3.0 mph 85% 0.00 in WeatherDisplay:10.37 W/m2 OVC
12:40 78.0 °F 73.1 °F 29.92 in Calm   1.0 mph 85% 0.00 in WeatherDisplay:10.37 W/m2 OVC
12:45 77.8 °F 73.3 °F 29.92 in Calm   2.0 mph 86% 0.00 in WeatherDisplay:10.37 W/m2 OVC
12:50 77.6 °F 73.4 °F 29.92 in Calm   1.0 mph 87% 0.00 in WeatherDisplay:10.37 W/m2 OVC
12:55 77.2 °F 73.0 °F 29.92 in NNW 6.1 mph   87% 0.01 in WeatherDisplay:10.37 W/m2 OVC
13:00 76.9 °F 72.7 °F 29.92 in WNW 6.1 mph 6.1 mph 87% 0.01 in WeatherDisplay:10.37 W/m2 OVC
13:10 76.4 °F 72.6 °F 29.92 in WNW 6.1 mph   88% 0.00 in WeatherDisplay:10.37 W/m2 -RA
13:14 76.1 °F 72.6 °F 29.92 in WNW 6.1 mph   89% 0.00 in WeatherDisplay:10.37 W/m2 -RA
13:19 76.0 °F 72.9 °F 29.91 in WNW 6.1 mph   90% 0.00 in WeatherDisplay:10.37 W/m2 -RA
13:24 75.9 °F 72.8 °F 29.91 in WNW 6.1 mph   90% 0.00 in WeatherDisplay:10.37 W/m2 -RA
13:29 75.9 °F 72.8 °F 29.90 in WNW 6.1 mph   90% 0.00 in WeatherDisplay:10.37 W/m2 -RA
13:35 76.2 °F 73.4 °F 29.90 in WNW 6.1 mph   91% 0.00 in WeatherDisplay:10.37 W/m2 -RA
13:40 76.3 °F 73.5 °F 29.90 in Calm     91% 0.00 in WeatherDisplay:10.37 W/m2 -RA
13:45 76.4 °F 73.6 °F 29.90 in Calm     91% 0.00 in WeatherDisplay:10.37 W/m2 -RA
13:50 76.6 °F 73.4 °F 29.89 in Calm     90% 0.00 in WeatherDisplay:10.37 W/m2 OVC
13:55 76.8 °F 73.6 °F 29.89 in Calm   1.0 mph 90% 0.00 in WeatherDisplay:10.37 W/m2 OVC
14:00 76.9 °F 73.4 °F 29.89 in Calm     89% 0.00 in WeatherDisplay:10.37 W/m2 OVC
14:05 77.0 °F 73.5 °F 29.89 in Calm     89% 0.00 in WeatherDisplay:10.37 W/m2 OVC
14:10 77.0 °F 73.5 °F 29.89 in Calm     89% 0.00 in WeatherDisplay:10.37 W/m2 OVC
14:15 77.0 °F 73.5 °F 29.89 in Calm     89% 0.00 in WeatherDisplay:10.37 W/m2 OVC
14:20 77.0 °F 73.8 °F 29.88 in Calm   1.0 mph 90% 0.00 in WeatherDisplay:10.37 W/m2 OVC
14:25 76.9 °F 73.1 °F 29.88 in NW 6.1 mph   88% 0.00 in WeatherDisplay:10.37 W/m2 OVC
14:30 77.1 °F 73.6 °F 29.88 in Calm     89% 0.00 in WeatherDisplay:10.37 W/m2 OVC
14:35 77.1 °F 73.3 °F 29.87 in Calm     88% 0.00 in WeatherDisplay:10.37 W/m2 OVC
14:40 77.1 °F 72.9 °F 29.87 in Calm   2.0 mph 87% 0.00 in WeatherDisplay:10.37 W/m2 OVC
14:45 77.1 °F 72.6 °F 29.87 in Calm   1.0 mph 86% 0.00 in WeatherDisplay:10.37 W/m2 OVC
14:50 77.2 °F 72.7 °F 29.86 in Calm   1.0 mph 86% 0.00 in WeatherDisplay:10.37 W/m2 OVC
14:55 77.4 °F 72.5 °F 29.86 in Calm   1.0 mph 85% 0.00 in WeatherDisplay:10.37 W/m2 OVC
15:00 77.7 °F 72.8 °F 29.86 in Calm   2.0 mph 85% 0.00 in WeatherDisplay:10.37 W/m2 OVC
15:05 77.9 °F 73.0 °F 29.86 in Calm   3.0 mph 85% 0.00 in WeatherDisplay:10.37 W/m2 OVC
15:10 78.2 °F 73.3 °F 29.86 in SSW 6.1 mph 6.1 mph 85% 0.00 in WeatherDisplay:10.37 W/m2 OVC
15:15 78.3 °F 73.1 °F 29.86 in West 1.0 mph 3.0 mph 84% 0.00 in WeatherDisplay:10.37 W/m2 OVC
15:16 78.3 °F 73.1 °F 29.86 in NNW 6.1 mph   84% 0.00 in WeatherDisplay:10.37 W/m2 OVC
15:21 78.4 °F 73.5 °F 29.86 in WNW 6.1 mph 6.1 mph 85% 0.00 in WeatherDisplay:10.37 W/m2 OVC
15:26 78.5 °F 73.3 °F 29.85 in WNW 6.1 mph   84% 0.00 in WeatherDisplay:10.37 W/m2 OVC
15:31 78.6 °F 73.7 °F 29.85 in WNW 6.1 mph   85% 0.00 in WeatherDisplay:10.37 W/m2 OVC
15:36 78.7 °F 73.1 °F 29.85 in North 6.1 mph   83% 0.00 in WeatherDisplay:10.37 W/m2 OVC
15:41 78.8 °F 73.2 °F 29.85 in West 6.1 mph 6.1 mph 83% 0.00 in WeatherDisplay:10.37 W/m2 OVC
15:46 78.7 °F 72.7 °F 29.84 in NW 6.1 mph   82% 0.00 in WeatherDisplay:10.37 W/m2 OVC
15:51 78.8 °F 73.2 °F 29.84 in NW 6.1 mph   83% 0.00 in WeatherDisplay:10.37 W/m2 OVC
15:57 78.9 °F 73.3 °F 29.84 in West 6.1 mph 6.1 mph 83% 0.00 in WeatherDisplay:10.37 W/m2 OVC
16:07 79.0 °F 72.3 °F 29.84 in WNW 6.1 mph 6.1 mph 80% 0.00 in WeatherDisplay:10.37 W/m2 OVC
16:12 79.2 °F 72.9 °F 29.84 in SSW 6.1 mph 6.1 mph 81% 0.00 in WeatherDisplay:10.37 W/m2 OVC
16:17 79.3 °F 73.0 °F 29.84 in WNW 6.1 mph 6.1 mph 81% 0.00 in WeatherDisplay:10.37 W/m2 OVC
16:22 79.2 °F 72.9 °F 29.84 in West 6.1 mph 6.1 mph 81% 0.00 in WeatherDisplay:10.37 W/m2 OVC
16:27 79.2 °F 72.9 °F 29.84 in WNW 6.1 mph 6.1 mph 81% 0.00 in WeatherDisplay:10.37 W/m2 OVC
16:32 79.0 °F 73.0 °F 29.84 in WNW 6.1 mph 6.1 mph 82% 0.00 in WeatherDisplay:10.37 W/m2 OVC
16:37 78.9 °F 73.7 °F 29.83 in WNW 6.1 mph   84% 0.00 in WeatherDisplay:10.37 W/m2 OVC
16:42 78.7 °F 73.8 °F 29.84 in WNW 6.1 mph 6.1 mph 85% 0.00 in WeatherDisplay:10.37 W/m2 OVC
16:47 78.6 °F 74.1 °F 29.83 in WNW 6.1 mph   86% 0.00 in WeatherDisplay:10.37 W/m2 OVC
16:52 78.5 °F 74.0 °F 29.83 in WNW 6.1 mph   86% 0.00 in WeatherDisplay:10.37 W/m2 OVC
16:57 78.5 °F 74.3 °F 29.83 in WNW 6.1 mph   87% 0.00 in WeatherDisplay:10.37 W/m2 OVC
17:02 78.5 °F 74.0 °F 29.82 in WNW 6.1 mph   86% 0.00 in WeatherDisplay:10.37 W/m2 OVC
17:07 78.6 °F 74.1 °F 29.82 in NE 6.1 mph 6.1 mph 86% 0.00 in WeatherDisplay:10.37 W/m2 OVC
17:12 78.8 °F 73.9 °F 29.82 in West 6.1 mph 6.1 mph 85% 0.00 in WeatherDisplay:10.37 W/m2 OVC
17:17 79.1 °F 74.2 °F 29.82 in West 6.1 mph   85% 0.00 in WeatherDisplay:10.37 W/m2 OVC
17:22 79.5 °F 73.9 °F 29.82 in WNW 6.1 mph 6.1 mph 83% 0.00 in WeatherDisplay:10.37 W/m2 BKN
17:27 80.1 °F 74.5 °F 29.82 in NW 6.1 mph   83% 0.00 in WeatherDisplay:10.37 W/m2 BKN
17:32 80.5 °F 74.1 °F 29.81 in NW 6.1 mph 6.1 mph 81% 0.00 in WeatherDisplay:10.37 W/m2 BKN
17:38 80.8 °F 74.4 °F 29.81 in NW 6.1 mph   81% 0.00 in WeatherDisplay:10.37 W/m2 BKN
17:43 81.0 °F 75.0 °F 29.81 in NW 6.1 mph   82% 0.00 in WeatherDisplay:10.37 W/m2 BKN
17:48 80.9 °F 74.1 °F 29.80 in NW 6.1 mph   80% 0.00 in WeatherDisplay:10.37 W/m2 BKN
17:53 80.6 °F 73.9 °F 29.80 in NW 6.1 mph   80% 0.00 in WeatherDisplay:10.37 W/m2 BKN
17:58 80.3 °F 73.9 °F 29.80 in NW 6.1 mph   81% 0.00 in WeatherDisplay:10.37 W/m2 BKN
18:04 80.0 °F 73.3 °F 29.80 in NNW 6.1 mph 6.1 mph 80% 0.00 in WeatherDisplay:10.37 W/m2 BKN
18:09 79.8 °F 73.8 °F 29.80 in NNW 6.1 mph   82% 0.00 in WeatherDisplay:10.37 W/m2 BKN
18:14 79.7 °F 74.1 °F 29.80 in NNW 6.1 mph   83% 0.00 in WeatherDisplay:10.37 W/m2 BKN
18:19 79.6 °F 74.0 °F 29.80 in NNW 6.1 mph   83% 0.00 in WeatherDisplay:10.37 W/m2 BKN
18:24 79.3 °F 73.7 °F 29.80 in WNW 6.1 mph   83% 0.00 in WeatherDisplay:10.37 W/m2 BKN
18:29 79.2 °F 73.9 °F 29.79 in WNW 6.1 mph   84% 0.00 in WeatherDisplay:10.37 W/m2 BKN
18:34 79.0 °F 73.7 °F 29.80 in WNW 6.1 mph   84% 0.00 in WeatherDisplay:10.37 W/m2 BKN
18:39 78.8 °F 73.2 °F 29.80 in WNW 6.1 mph   83% 0.00 in WeatherDisplay:10.37 W/m2 BKN
18:44 78.8 °F 72.8 °F 29.80 in WNW 6.1 mph   82% 0.00 in WeatherDisplay:10.37 W/m2 BKN
18:49 78.9 °F 73.3 °F 29.80 in WNW 6.1 mph   83% 0.00 in WeatherDisplay:10.37 W/m2 BKN
18:54 78.9 °F 73.7 °F 29.80 in WNW 6.1 mph   84% 0.00 in WeatherDisplay:10.37 W/m2 OVC
18:59 78.9 °F 73.7 °F 29.80 in WNW 6.1 mph   84% 0.00 in WeatherDisplay:10.37 W/m2 OVC
19:04 78.8 °F 73.2 °F 29.80 in WNW 6.1 mph   83% 0.00 in WeatherDisplay:10.37 W/m2 OVC
19:09 78.8 °F 73.2 °F 29.81 in WNW 6.1 mph   83% 0.00 in WeatherDisplay:10.37 W/m2 OVC
19:14 78.7 °F 73.5 °F 29.80 in WNW 6.1 mph 6.1 mph 84% 0.00 in WeatherDisplay:10.37 W/m2 OVC
19:19 78.6 °F 73.4 °F 29.81 in WNW 6.1 mph   84% 0.00 in WeatherDisplay:10.37 W/m2 OVC
19:25 78.6 °F 73.4 °F 29.81 in WNW 6.1 mph   84% 0.00 in WeatherDisplay:10.37 W/m2 BKN
19:30 78.5 °F 73.3 °F 29.80 in Calm   1.0 mph 84% 0.00 in WeatherDisplay:10.37 W/m2 BKN
19:35 78.5 °F 73.6 °F 29.80 in Calm     85% 0.00 in WeatherDisplay:10.37 W/m2 BKN
19:40 78.4 °F 73.2 °F 29.80 in Calm     84% 0.00 in WeatherDisplay:10.37 W/m2 BKN
19:45 78.4 °F 73.5 °F 29.81 in Calm     85% 0.00 in WeatherDisplay:10.37 W/m2 BKN
19:50 78.3 °F 73.4 °F 29.80 in Calm     85% 0.00 in WeatherDisplay:10.37 W/m2 BKN
19:55 78.2 °F 73.7 °F 29.80 in Calm     86% 0.00 in WeatherDisplay:10.37 W/m2 BKN
20:00 78.1 °F 73.6 °F 29.80 in WNW 6.1 mph   86% 0.00 in WeatherDisplay:10.37 W/m2 BKN
20:05 77.0 °F 72.5 °F 29.80 in Calm     86% 0.00 in WeatherDisplay:10.37 W/m2 BKN
20:10 77.0 °F 72.5 °F 29.80 in Calm     86% 0.00 in WeatherDisplay:10.37 W/m2 BKN
20:15 77.0 °F 72.5 °F 29.80 in Calm     86% 0.00 in WeatherDisplay:10.37 W/m2 BKN
20:20 77.0 °F 72.5 °F 29.80 in North 6.1 mph   86% 0.00 in WeatherDisplay:10.37 W/m2 BKN
20:25 77.0 °F 72.5 °F 29.80 in Calm     86% 0.00 in WeatherDisplay:10.37 W/m2 -RA
20:30 77.0 °F 72.5 °F 29.80 in North 6.1 mph   86% 0.00 in WeatherDisplay:10.37 W/m2 OVC
20:35 77.0 °F 72.5 °F 29.80 in Calm     86% 0.00 in WeatherDisplay:10.37 W/m2 OVC
20:40 77.0 °F 72.5 °F 29.81 in Calm     86% 0.00 in WeatherDisplay:10.37 W/m2 OVC
20:45 77.0 °F 72.5 °F 29.80 in North 6.1 mph   86% 0.00 in WeatherDisplay:10.37 W/m2 OVC
20:50 77.0 °F 72.5 °F 29.81 in North 6.1 mph   86% 0.00 in WeatherDisplay:10.37 W/m2 OVC
20:55 77.0 °F 72.5 °F 29.81 in Calm     86% 0.00 in WeatherDisplay:10.37 W/m2 OVC
21:00 77.0 °F 72.5 °F 29.81 in Calm     86% 0.00 in WeatherDisplay:10.37 W/m2 OVC
21:05 77.0 °F 72.5 °F 29.80 in Calm     86% 0.00 in WeatherDisplay:10.37 W/m2 OVC
21:10 77.0 °F 72.5 °F 29.80 in Calm     86% 0.00 in WeatherDisplay:10.37 W/m2 OVC
21:15 77.0 °F 72.5 °F 29.80 in Calm     86% 0.00 in WeatherDisplay:10.37 W/m2 OVC
21:20 77.0 °F 72.5 °F 29.80 in Calm     86% 0.00 in WeatherDisplay:10.37 W/m2 OVC
21:25 77.0 °F 72.5 °F 29.80 in Calm     86% 0.00 in WeatherDisplay:10.37 W/m2 OVC
21:30 77.0 °F 72.5 °F 29.80 in North 6.1 mph   86% 0.00 in WeatherDisplay:10.37 W/m2 OVC
21:35 77.0 °F 72.5 °F 29.80 in North 6.1 mph   86% 0.00 in WeatherDisplay:10.37 W/m2 OVC
21:40 77.0 °F 72.5 °F 29.80 in North 6.1 mph   86% 0.00 in WeatherDisplay:10.37 W/m2 OVC
21:45 77.0 °F 72.5 °F 29.80 in North 6.1 mph   86% 0.00 in WeatherDisplay:10.37 W/m2 OVC
21:50 77.0 °F 72.5 °F 29.80 in North 6.1 mph   86% 0.00 in WeatherDisplay:10.37 W/m2 OVC
21:55 77.0 °F 72.5 °F 29.80 in North 6.1 mph   86% 0.00 in WeatherDisplay:10.37 W/m2 OVC
22:00 77.0 °F 72.5 °F 29.80 in North 6.1 mph   86% 0.00 in WeatherDisplay:10.37 W/m2 OVC
22:05 77.0 °F 72.5 °F 29.80 in North 6.1 mph   86% 0.00 in WeatherDisplay:10.37 W/m2 OVC
22:10 77.0 °F 72.5 °F 29.80 in North 6.1 mph   86% 0.00 in WeatherDisplay:10.37 W/m2 OVC
22:15 77.0 °F 72.5 °F 29.81 in North 6.1 mph   86% 0.00 in WeatherDisplay:10.37 W/m2 OVC
22:20 77.0 °F 72.5 °F 29.80 in North 6.1 mph   86% 0.00 in WeatherDisplay:10.37 W/m2 OVC
22:25 77.0 °F 72.5 °F 29.80 in North 6.1 mph   86% 0.00 in WeatherDisplay:10.37 W/m2 OVC
22:30 77.0 °F 72.5 °F 29.80 in North 6.1 mph   86% 0.00 in WeatherDisplay:10.37 W/m2 OVC
22:35 77.0 °F 72.5 °F 29.81 in North 6.1 mph   86% 0.00 in WeatherDisplay:10.37 W/m2 OVC
22:40 77.0 °F 72.5 °F 29.80 in North 6.1 mph   86% 0.00 in WeatherDisplay:10.37 W/m2 OVC
22:46 77.0 °F 72.5 °F 29.80 in North 6.1 mph   86% 0.00 in WeatherDisplay:10.37 W/m2 OVC
22:51 77.0 °F 72.5 °F 29.80 in North 6.1 mph   86% 0.00 in WeatherDisplay:10.37 W/m2 OVC
22:56 77.0 °F 72.5 °F 29.80 in North 6.1 mph   86% 0.00 in WeatherDisplay:10.37 W/m2 OVC
23:01 77.0 °F 72.5 °F 29.80 in North 6.1 mph   86% 0.00 in WeatherDisplay:10.37 W/m2 OVC
23:06 77.0 °F 72.5 °F 29.80 in North 6.1 mph   86% 0.00 in WeatherDisplay:10.37 W/m2 OVC
23:11 77.0 °F 72.5 °F 29.80 in North 6.1 mph   86% 0.00 in WeatherDisplay:10.37 W/m2 OVC
23:16 77.0 °F 72.5 °F 29.80 in North 6.1 mph   86% 0.00 in WeatherDisplay:10.37 W/m2 OVC
23:21 77.0 °F 72.5 °F 29.80 in North 6.1 mph   86% 0.00 in WeatherDisplay:10.37 W/m2 OVC
23:26 77.0 °F 72.5 °F 29.80 in North 6.1 mph   86% 0.00 in WeatherDisplay:10.37 W/m2 OVC
23:31 77.0 °F 72.5 °F 29.80 in North 6.1 mph   86% 0.00 in WeatherDisplay:10.37 W/m2 OVC
23:36 77.0 °F 72.5 °F 29.80 in North 6.1 mph   86% 0.00 in WeatherDisplay:10.37 W/m2 OVC
23:41 77.0 °F 72.5 °F 29.80 in North 6.1 mph   86% 0.00 in WeatherDisplay:10.37 W/m2 OVC
23:46 77.0 °F 72.5 °F 29.80 in North 6.1 mph   86% 0.00 in WeatherDisplay:10.37 W/m2 OVC
23:51 77.0 °F 72.5 °F 29.80 in North 6.1 mph   86% 0.00 in WeatherDisplay:10.37 W/m2 -RA
23:56 77.0 °F 72.5 °F 29.80 in North 6.1 mph   86% 0.00 in WeatherDisplay:10.37 W/m2 -RA
Piedmont Bend
Compliments of Weather Underground - 4 mb